Terminal Aerodrome Forecast
Issued by NWS Nashville, TN

Home | Current Version | Previous Version | Text Only | Print | Product List | Glossary On
Versions: 1 2 3 4 5 6 7 8 9 10 11 12 13 14 15 16 17 18
571
FTUS44 KOHX 062324
TAFBNA
TAF
KBNA 062324Z 0700/0724 VRB04KT P6SM BKN150 BKN250
     FM071800 23010KT P6SM SCT120=

USA.gov is the U.S. government's official web portal to all federal, state and local government web resources and services.